createdAt,value
2022-11-22T00:00:09.555Z,4.70
2022-11-22T00:02:36.176Z,4.60
2022-11-22T00:05:03.458Z,4.60
2022-11-22T00:07:30.120Z,4.60
2022-11-22T00:09:56.638Z,4.60
2022-11-22T00:12:23.121Z,4.60
2022-11-22T00:14:53.914Z,4.60
2022-11-22T00:17:23.290Z,4.60
2022-11-22T00:19:49.777Z,4.60
2022-11-22T00:22:16.255Z,4.60
2022-11-22T00:24:44.033Z,4.60
2022-11-22T00:27:10.606Z,4.60
2022-11-22T00:29:37.079Z,4.60
2022-11-22T00:32:03.549Z,4.60
2022-11-22T00:34:30.025Z,4.60
2022-11-22T00:36:56.542Z,4.60
2022-11-22T00:39:23.059Z,4.60
2022-11-22T00:41:49.554Z,4.60
2022-11-22T00:44:16.065Z,4.60
2022-11-22T00:46:42.539Z,4.60
2022-11-22T00:49:09.047Z,4.60
2022-11-22T00:51:35.553Z,4.60
2022-11-22T00:54:02.054Z,4.60
2022-11-22T00:56:28.662Z,4.60
2022-11-22T00:58:55.149Z,4.60
2022-11-22T01:01:21.713Z,4.60
2022-11-22T01:03:48.310Z,4.60
2022-11-22T01:06:14.795Z,4.50
2022-11-22T01:08:41.366Z,4.50
2022-11-22T01:11:07.863Z,4.50
2022-11-22T01:13:34.416Z,4.60
2022-11-22T01:16:00.955Z,4.60
2022-11-22T01:18:27.456Z,4.60
2022-11-22T01:20:53.929Z,4.60
2022-11-22T01:23:20.435Z,4.60
2022-11-22T01:25:46.905Z,4.60
2022-11-22T01:28:13.448Z,4.60
2022-11-22T01:30:39.921Z,4.60
2022-11-22T01:33:06.424Z,4.60
2022-11-22T01:35:32.931Z,4.70
2022-11-22T01:37:59.400Z,4.70
2022-11-22T01:40:25.918Z,4.60
2022-11-22T01:42:52.410Z,4.60
2022-11-22T01:45:18.919Z,4.70
2022-11-22T01:47:45.396Z,4.70
2022-11-22T01:50:11.899Z,4.70
2022-11-22T01:52:38.419Z,4.70
2022-11-22T01:55:04.933Z,4.70
2022-11-22T01:57:31.441Z,4.70
2022-11-22T01:59:57.963Z,4.80
2022-11-22T02:02:24.437Z,4.70
2022-11-22T02:04:51.169Z,4.80
2022-11-22T02:07:17.693Z,4.80
2022-11-22T02:09:44.276Z,4.80
2022-11-22T02:12:10.755Z,4.80
2022-11-22T02:14:37.291Z,4.80
2022-11-22T02:17:03.851Z,4.80
2022-11-22T02:19:30.615Z,4.80
2022-11-22T02:21:57.363Z,4.80
2022-11-22T02:24:23.842Z,4.90
2022-11-22T02:26:50.461Z,4.80
2022-11-22T02:29:16.985Z,4.80
2022-11-22T02:31:43.508Z,4.80
2022-11-22T02:34:10.014Z,4.70
2022-11-22T02:36:36.534Z,4.70
2022-11-22T02:39:03.030Z,4.70
2022-11-22T02:41:29.539Z,4.70
2022-11-22T02:43:56.106Z,4.70
2022-11-22T02:46:23.563Z,4.70
2022-11-22T02:48:50.072Z,4.70
2022-11-22T02:51:17.022Z,4.70
2022-11-22T02:53:43.768Z,4.70
2022-11-22T02:56:10.234Z,4.70
2022-11-22T02:58:36.712Z,4.60
2022-11-22T03:01:03.259Z,4.70
2022-11-22T03:03:29.782Z,4.60
2022-11-22T03:05:56.318Z,4.60
2022-11-22T03:08:22.801Z,4.60
2022-11-22T03:10:49.311Z,4.70
2022-11-22T03:13:15.792Z,4.70
2022-11-22T03:15:42.294Z,4.70
2022-11-22T03:18:08.795Z,4.70
2022-11-22T03:20:35.522Z,4.70
2022-11-22T03:23:05.013Z,4.60
2022-11-22T03:25:31.514Z,4.70
2022-11-22T03:27:59.068Z,4.70
2022-11-22T03:30:25.642Z,4.70
2022-11-22T03:32:52.123Z,4.70
2022-11-22T03:35:18.661Z,4.70
2022-11-22T03:37:45.191Z,4.70
2022-11-22T03:40:11.751Z,4.70
2022-11-22T03:42:38.271Z,4.80
2022-11-22T03:45:04.775Z,4.70
2022-11-22T03:47:31.243Z,4.70
2022-11-22T03:49:57.721Z,4.80
2022-11-22T03:52:24.233Z,4.70
2022-11-22T03:54:50.774Z,4.70
2022-11-22T03:57:17.416Z,4.70
2022-11-22T03:59:43.903Z,4.70
2022-11-22T04:02:10.556Z,4.70
2022-11-22T04:04:37.179Z,4.70
2022-11-22T04:07:03.811Z,4.80
2022-11-22T04:09:30.693Z,4.80
2022-11-22T04:11:57.497Z,4.80
2022-11-22T04:14:42.799Z,4.80
2022-11-22T04:17:09.351Z,4.90
2022-11-22T04:19:35.847Z,4.90
2022-11-22T04:22:02.379Z,4.90
2022-11-22T04:24:47.357Z,4.90
2022-11-22T04:27:13.895Z,4.90
2022-11-22T04:29:40.383Z,4.90
2022-11-22T04:32:25.779Z,4.90
2022-11-22T04:34:52.270Z,4.90
2022-11-22T04:37:18.836Z,4.90
2022-11-22T04:39:45.318Z,4.80
2022-11-22T04:42:30.552Z,4.80
2022-11-22T04:44:57.120Z,4.80
2022-11-22T04:47:46.204Z,4.90
2022-11-22T04:50:34.236Z,4.80
2022-11-22T04:53:00.743Z,4.80
2022-11-22T04:55:27.273Z,4.90
2022-11-22T04:57:59.135Z,4.90
2022-11-22T05:00:27.415Z,4.90
2022-11-22T05:02:53.956Z,5.00
2022-11-22T05:05:20.443Z,5.00
2022-11-22T05:07:47.023Z,5.00
2022-11-22T05:10:13.562Z,5.00
2022-11-22T05:12:40.050Z,5.00
2022-11-22T05:15:06.516Z,5.00
2022-11-22T05:17:33.022Z,5.00
2022-11-22T05:19:59.510Z,5.00
2022-11-22T05:22:45.981Z,5.00
2022-11-22T05:25:12.457Z,5.10
2022-11-22T05:27:38.995Z,5.10
2022-11-22T05:30:05.475Z,5.10
2022-11-22T05:32:31.989Z,5.10
2022-11-22T05:34:58.515Z,5.10
2022-11-22T05:37:25.013Z,5.10
2022-11-22T05:39:51.494Z,5.00
2022-11-22T05:42:18.014Z,5.00
2022-11-22T05:44:44.526Z,5.00
2022-11-22T05:47:11.009Z,5.00
2022-11-22T05:49:37.548Z,5.00
2022-11-22T05:52:04.119Z,4.90
2022-11-22T05:54:30.607Z,4.90
2022-11-22T05:56:57.139Z,4.90
2022-11-22T05:59:23.636Z,4.90
2022-11-22T06:01:50.185Z,4.90
2022-11-22T06:04:16.756Z,4.80
2022-11-22T06:06:43.275Z,4.80
2022-11-22T06:09:09.758Z,4.80
2022-11-22T06:11:36.237Z,4.80
2022-11-22T06:14:05.814Z,4.80
2022-11-22T06:16:32.397Z,4.70
2022-11-22T06:18:58.935Z,4.70
2022-11-22T06:21:25.422Z,4.70
2022-11-22T06:23:51.933Z,4.60
2022-11-22T06:26:18.401Z,4.60
2022-11-22T06:28:44.904Z,4.60
2022-11-22T06:31:11.414Z,4.60
2022-11-22T06:33:37.938Z,4.60
2022-11-22T06:36:04.502Z,4.60
2022-11-22T06:38:31.151Z,4.60
2022-11-22T06:40:57.699Z,4.50
2022-11-22T06:43:24.220Z,4.50
2022-11-22T06:45:51.030Z,4.50
2022-11-22T06:48:17.544Z,4.50
2022-11-22T06:50:44.030Z,4.40
2022-11-22T06:53:26.321Z,4.40
2022-11-22T06:56:01.340Z,4.30
2022-11-22T06:58:28.168Z,4.30
2022-11-22T07:00:54.710Z,4.20
2022-11-22T07:03:21.239Z,4.20
2022-11-22T07:05:47.761Z,4.30
2022-11-22T07:08:14.420Z,4.20
2022-11-22T07:10:41.000Z,4.20
2022-11-22T07:13:07.483Z,4.20
2022-11-22T07:15:33.947Z,4.20
2022-11-22T07:18:00.421Z,4.10
2022-11-22T07:20:26.939Z,4.10
2022-11-22T07:22:53.425Z,4.10
2022-11-22T07:25:19.901Z,4.20
2022-11-22T07:27:46.366Z,4.10
2022-11-22T07:30:12.859Z,4.10
2022-11-22T07:32:39.407Z,4.10
2022-11-22T07:35:05.907Z,4.10
2022-11-22T07:37:32.421Z,4.10
2022-11-22T07:39:58.936Z,4.10
2022-11-22T07:42:26.497Z,4.10
2022-11-22T07:44:53.787Z,4.10
2022-11-22T07:47:23.055Z,4.20
2022-11-22T07:49:49.816Z,4.20
2022-11-22T07:52:16.289Z,4.20
2022-11-22T07:54:42.793Z,4.30
2022-11-22T07:57:09.324Z,4.30
2022-11-22T07:59:35.806Z,4.40
2022-11-22T08:02:02.932Z,4.40
2022-11-22T08:04:29.620Z,4.50
2022-11-22T08:06:56.204Z,4.60
2022-11-22T08:09:22.905Z,4.60
2022-11-22T08:11:49.382Z,4.60
2022-11-22T08:14:15.855Z,4.60
2022-11-22T08:16:42.496Z,4.70
2022-11-22T08:19:09.053Z,4.70
2022-11-22T08:21:35.616Z,4.80
2022-11-22T08:24:02.146Z,4.80
2022-11-22T08:26:28.682Z,4.80
2022-11-22T08:28:55.173Z,4.90
2022-11-22T08:31:21.663Z,4.90
2022-11-22T08:33:48.442Z,4.90
2022-11-22T08:36:15.353Z,4.90
2022-11-22T08:38:41.831Z,5.00
2022-11-22T08:41:08.345Z,5.10
2022-11-22T08:43:34.844Z,5.10
2022-11-22T08:46:02.040Z,5.10
2022-11-22T08:48:28.600Z,5.10
2022-11-22T08:50:55.144Z,5.10
2022-11-22T08:53:21.672Z,5.10
2022-11-22T08:55:48.192Z,5.20
2022-11-22T08:58:14.710Z,5.30
2022-11-22T09:00:41.210Z,5.30
2022-11-22T09:03:07.710Z,5.30
2022-11-22T09:05:34.429Z,5.40
2022-11-22T09:10:47.972Z,5.50
2022-11-22T09:13:14.441Z,5.50
2022-11-22T09:15:40.919Z,5.50
2022-11-22T09:18:07.407Z,5.50
2022-11-22T09:20:33.906Z,5.50
2022-11-22T09:23:00.422Z,5.50
2022-11-22T09:25:26.966Z,5.60
2022-11-22T09:27:53.454Z,5.60
2022-11-22T09:30:21.515Z,5.70
2022-11-22T09:32:48.019Z,5.80
2022-11-22T09:35:17.036Z,5.80
2022-11-22T09:37:43.546Z,5.90
2022-11-22T09:40:10.024Z,5.90
2022-11-22T09:42:36.637Z,5.90
2022-11-22T09:45:03.128Z,5.90
2022-11-22T09:47:29.662Z,5.90
2022-11-22T09:49:56.118Z,5.90
2022-11-22T09:52:22.620Z,5.90
2022-11-22T09:54:49.099Z,5.90
2022-11-22T09:57:15.629Z,6.00
2022-11-22T09:59:42.142Z,6.10
2022-11-22T10:02:18.363Z,6.10
2022-11-22T10:04:47.574Z,6.10
2022-11-22T10:07:14.109Z,6.10
2022-11-22T10:09:40.610Z,6.10
2022-11-22T10:12:07.214Z,6.10
2022-11-22T10:14:33.665Z,6.20
2022-11-22T10:17:00.142Z,6.20
2022-11-22T10:19:26.598Z,6.30
2022-11-22T10:21:53.078Z,6.30
2022-11-22T10:24:19.875Z,6.40
2022-11-22T10:26:46.873Z,6.50
2022-11-22T10:29:13.323Z,6.60
2022-11-22T10:31:39.813Z,6.70
2022-11-22T10:34:06.286Z,7.00
2022-11-22T10:36:32.806Z,7.10
2022-11-22T10:38:59.271Z,7.00
2022-11-22T10:41:25.841Z,6.90
2022-11-22T10:43:52.329Z,7.00
2022-11-22T10:46:18.865Z,7.10
2022-11-22T10:48:45.578Z,7.20
2022-11-22T10:51:12.118Z,7.40
2022-11-22T10:53:38.803Z,7.50
2022-11-22T10:56:05.263Z,7.20
2022-11-22T10:58:31.780Z,7.00
2022-11-22T11:00:58.316Z,6.70
2022-11-22T11:03:25.243Z,6.60
2022-11-22T11:09:03.134Z,6.50
2022-11-22T11:11:25.243Z,6.40
2022-11-22T11:13:51.795Z,6.20
2022-11-22T11:16:18.261Z,6.10
2022-11-22T11:18:45.833Z,6.10
2022-11-22T11:21:12.400Z,6.00
2022-11-22T11:26:19.454Z,6.10
2022-11-22T11:28:45.944Z,6.20
2022-11-22T11:31:18.371Z,6.20
2022-11-22T11:33:44.913Z,6.20
2022-11-22T11:36:11.430Z,6.20
2022-11-22T11:38:37.989Z,6.20
2022-11-22T11:41:04.646Z,6.30
2022-11-22T11:43:31.146Z,6.30
2022-11-22T11:45:57.678Z,6.30
2022-11-22T11:48:24.149Z,6.40
2022-11-22T11:50:51.078Z,6.50
2022-11-22T11:53:17.563Z,6.50
2022-11-22T11:55:44.751Z,6.50
2022-11-22T11:58:16.061Z,6.40
2022-11-22T12:00:43.939Z,6.30
2022-11-22T12:03:10.464Z,6.30
2022-11-22T12:05:36.988Z,6.40
2022-11-22T12:08:03.519Z,6.40
2022-11-22T12:10:30.130Z,6.50
2022-11-22T12:13:00.182Z,6.40
2022-11-22T12:15:30.602Z,6.40
2022-11-22T12:17:57.066Z,6.40
2022-11-22T12:20:23.607Z,6.40
2022-11-22T12:22:50.847Z,6.50
2022-11-22T12:25:31.952Z,6.80
2022-11-22T12:28:04.118Z,7.00
2022-11-22T12:30:30.586Z,6.90
2022-11-22T12:32:57.098Z,6.70
2022-11-22T12:35:23.662Z,6.60
2022-11-22T12:37:50.180Z,6.50
2022-11-22T12:40:16.660Z,6.40
2022-11-22T12:42:43.168Z,6.40
2022-11-22T12:45:09.699Z,6.50
2022-11-22T12:47:36.210Z,6.50
2022-11-22T12:50:02.696Z,6.70
2022-11-22T12:52:29.180Z,6.60
2022-11-22T12:54:55.679Z,6.50
2022-11-22T12:57:22.241Z,6.40
2022-11-22T12:59:48.824Z,6.40
2022-11-22T13:02:15.287Z,6.40
2022-11-22T13:04:42.285Z,6.40
2022-11-22T13:07:08.835Z,6.40
2022-11-22T13:09:35.429Z,6.30
2022-11-22T13:12:01.945Z,6.40
2022-11-22T13:14:28.422Z,6.40
2022-11-22T13:16:54.968Z,6.50
2022-11-22T13:19:21.485Z,6.40
2022-11-22T13:21:48.032Z,6.30
2022-11-22T13:24:14.543Z,6.30
2022-11-22T13:26:41.200Z,6.20
2022-11-22T13:29:07.725Z,6.20
2022-11-22T13:31:39.452Z,6.20
2022-11-22T13:34:07.402Z,6.10
2022-11-22T13:36:33.903Z,6.20
2022-11-22T13:39:00.425Z,6.10
2022-11-22T13:41:26.946Z,6.10
2022-11-22T13:43:53.458Z,6.10
2022-11-22T13:46:19.979Z,6.10
2022-11-22T13:48:47.293Z,6.10
2022-11-22T13:51:13.951Z,6.10
2022-11-22T13:53:42.558Z,6.10
2022-11-22T13:56:09.140Z,6.00
2022-11-22T13:58:35.726Z,6.00
2022-11-22T14:01:02.363Z,6.00
2022-11-22T14:03:28.946Z,6.00
2022-11-22T14:05:55.466Z,6.10
2022-11-22T14:08:21.938Z,6.00
2022-11-22T14:10:48.454Z,6.00
2022-11-22T14:13:14.940Z,6.00
2022-11-22T14:15:41.444Z,6.00
2022-11-22T14:18:07.934Z,6.00
2022-11-22T14:20:34.517Z,6.00
2022-11-22T14:23:01.029Z,6.00
2022-11-22T14:25:27.515Z,5.90
2022-11-22T14:27:53.991Z,6.00
2022-11-22T14:30:20.535Z,6.00
2022-11-22T14:32:47.047Z,6.00
2022-11-22T14:35:13.619Z,5.90
2022-11-22T14:37:40.114Z,5.90
2022-11-22T14:40:06.659Z,5.90
2022-11-22T14:42:33.181Z,5.90
2022-11-22T14:44:59.662Z,5.90
2022-11-22T14:47:26.193Z,5.90
2022-11-22T14:49:52.681Z,5.90
2022-11-22T14:52:19.177Z,6.00
2022-11-22T14:54:45.687Z,6.00
2022-11-22T14:57:12.503Z,6.00
2022-11-22T14:59:39.018Z,6.00
2022-11-22T15:02:05.600Z,6.00
2022-11-22T15:09:10.957Z,6.10
2022-11-22T15:09:22.729Z,6.00
2022-11-22T15:10:05.498Z,6.00
2022-11-22T15:12:32.105Z,6.00
2022-11-22T15:14:58.602Z,6.00
2022-11-22T15:59:24.762Z,5.60
2022-11-22T16:01:51.315Z,5.60
2022-11-22T16:04:17.863Z,5.60
2022-11-22T16:06:44.458Z,5.60
2022-11-22T16:09:10.945Z,5.60
2022-11-22T16:11:37.543Z,5.70
2022-11-22T16:14:04.017Z,5.70
2022-11-22T16:16:31.380Z,5.70
2022-11-22T16:18:57.989Z,5.70
2022-11-22T16:21:27.220Z,5.70
2022-11-22T16:23:53.698Z,5.70
2022-11-22T16:26:20.280Z,5.80
2022-11-22T16:28:46.787Z,5.80
2022-11-22T16:31:13.263Z,5.80
2022-11-22T16:33:40.027Z,5.80
2022-11-22T16:36:06.954Z,5.80
2022-11-22T16:38:33.491Z,5.80
2022-11-22T16:41:00.260Z,5.80
2022-11-22T16:43:26.833Z,5.80
2022-11-22T16:45:53.347Z,5.80
2022-11-22T16:48:35.088Z,5.90
2022-11-22T16:51:01.644Z,5.90
2022-11-22T16:53:28.138Z,5.90
2022-11-22T16:55:54.619Z,5.90
2022-11-22T16:58:21.120Z,5.90
2022-11-22T17:00:47.697Z,5.90
2022-11-22T17:03:14.257Z,5.90
2022-11-22T17:05:40.728Z,5.90
2022-11-22T17:08:07.243Z,5.90
2022-11-22T17:10:33.727Z,5.90
2022-11-22T17:13:00.252Z,5.90
2022-11-22T17:15:26.870Z,5.90
2022-11-22T17:17:53.512Z,5.90
2022-11-22T17:20:20.168Z,5.90
2022-11-22T17:22:46.668Z,5.90
2022-11-22T17:25:13.160Z,5.90
2022-11-22T17:27:41.034Z,5.90
2022-11-22T17:30:07.534Z,5.90
2022-11-22T17:32:34.137Z,5.80
2022-11-22T17:35:00.674Z,5.80
2022-11-22T17:37:29.367Z,5.90
2022-11-22T17:39:55.961Z,5.90
2022-11-22T17:42:24.013Z,5.80
2022-11-22T17:44:50.546Z,5.90
2022-11-22T17:47:17.041Z,5.80
2022-11-22T17:49:43.673Z,5.80
2022-11-22T17:52:10.209Z,5.80
2022-11-22T17:54:36.997Z,5.80
2022-11-22T17:57:03.520Z,5.80
2022-11-22T17:59:30.394Z,5.80
2022-11-22T18:01:57.225Z,5.80
2022-11-22T18:04:23.746Z,5.70
2022-11-22T18:06:50.449Z,5.70
2022-11-22T18:09:16.948Z,5.70
2022-11-22T18:11:43.632Z,5.70
2022-11-22T18:14:10.164Z,5.70
2022-11-22T18:16:36.812Z,5.70
2022-11-22T18:19:03.310Z,5.70
2022-11-22T18:21:30.157Z,5.70
2022-11-22T18:23:56.914Z,5.70
2022-11-22T18:26:38.692Z,5.70
2022-11-22T18:31:53.645Z,5.70
2022-11-22T18:34:20.687Z,5.70
2022-11-22T18:37:04.135Z,5.70
2022-11-22T18:39:31.645Z,5.70
2022-11-22T18:41:58.412Z,5.70
2022-11-22T18:44:24.976Z,5.70
2022-11-22T18:46:51.567Z,5.70
2022-11-22T18:49:18.681Z,5.70
2022-11-22T18:54:25.878Z,5.70
2022-11-22T18:56:52.393Z,5.70
2022-11-22T18:59:18.935Z,5.80
2022-11-22T19:01:45.463Z,5.70
2022-11-22T19:04:12.521Z,5.70
2022-11-22T19:06:40.641Z,5.70
2022-11-22T19:09:07.132Z,5.70
2022-11-22T19:11:33.745Z,5.70
2022-11-22T19:14:00.271Z,5.60
2022-11-22T19:16:29.345Z,5.60
2022-11-22T19:18:55.875Z,5.60
2022-11-22T19:21:22.551Z,5.60
2022-11-22T19:23:52.721Z,5.60
2022-11-22T19:26:20.885Z,5.60
2022-11-22T19:28:48.065Z,5.60
2022-11-22T19:31:14.657Z,5.60
2022-11-22T19:33:41.208Z,5.60
2022-11-22T19:36:07.868Z,5.60
2022-11-22T19:38:34.440Z,5.60
2022-11-22T19:41:00.979Z,5.60
2022-11-22T19:43:27.633Z,5.60
2022-11-22T19:45:54.116Z,5.60
2022-11-22T19:48:20.638Z,5.60
2022-11-22T19:50:47.185Z,5.60
2022-11-22T19:53:16.426Z,5.50
2022-11-22T19:55:45.552Z,5.60
2022-11-22T19:58:12.232Z,5.60
2022-11-22T20:00:38.769Z,5.60
2022-11-22T20:03:05.793Z,5.60
2022-11-22T20:05:32.447Z,5.60
2022-11-22T20:07:59.002Z,5.60
2022-11-22T20:10:25.520Z,5.60
2022-11-22T20:12:52.500Z,5.60
2022-11-22T20:15:19.020Z,5.60
2022-11-22T20:17:45.551Z,5.60
2022-11-22T20:20:12.063Z,5.60
2022-11-22T20:22:38.568Z,5.50
2022-11-22T20:25:05.807Z,5.60
2022-11-22T20:27:32.544Z,5.50
2022-11-22T20:30:01.406Z,5.60
2022-11-22T20:32:28.228Z,5.60
2022-11-22T20:34:54.708Z,5.50
2022-11-22T20:37:21.461Z,5.50
2022-11-22T20:39:47.972Z,5.60
2022-11-22T20:45:01.045Z,5.50
2022-11-22T20:47:27.617Z,5.50
2022-11-22T20:49:54.151Z,5.50
2022-11-22T20:52:20.656Z,5.50
2022-11-22T20:54:47.150Z,5.50
2022-11-22T20:57:13.648Z,5.50
2022-11-22T20:59:40.260Z,5.50
2022-11-22T21:02:09.329Z,5.50
2022-11-22T21:04:36.071Z,5.50
2022-11-22T21:07:02.586Z,5.50
2022-11-22T21:09:29.130Z,5.50
2022-11-22T21:11:55.777Z,5.50
2022-11-22T21:14:22.411Z,5.50
2022-11-22T21:16:48.963Z,5.50
2022-11-22T21:19:15.637Z,5.50
2022-11-22T21:21:42.219Z,5.50
2022-11-22T21:24:08.915Z,5.60
2022-11-22T21:26:35.414Z,5.60
2022-11-22T21:29:03.237Z,5.70
2022-11-22T21:31:29.800Z,5.70
2022-11-22T21:33:56.276Z,5.80
2022-11-22T21:36:22.784Z,5.80
2022-11-22T21:38:49.392Z,5.80
2022-11-22T21:41:38.950Z,5.80
2022-11-22T21:44:02.885Z,5.80
2022-11-22T21:46:29.685Z,5.80
2022-11-22T21:48:56.248Z,5.90
2022-11-22T21:51:25.633Z,5.90
2022-11-22T21:53:52.417Z,5.80
2022-11-22T21:56:18.897Z,5.90
2022-11-22T21:58:45.446Z,5.90
2022-11-22T22:01:14.338Z,5.90
2022-11-22T22:03:41.097Z,5.90
2022-11-22T22:06:07.656Z,5.90
2022-11-22T22:08:34.322Z,6.00
2022-11-22T22:11:03.845Z,6.00
2022-11-22T22:13:30.861Z,6.00
2022-11-22T22:15:57.669Z,6.00
2022-11-22T22:18:24.478Z,6.00
2022-11-22T22:20:50.964Z,6.00
2022-11-22T22:23:17.467Z,6.00
2022-11-22T22:25:43.945Z,6.00
2022-11-22T22:28:10.455Z,6.00
2022-11-22T22:30:36.963Z,6.10
2022-11-22T22:33:03.527Z,6.10
2022-11-22T22:35:30.035Z,6.10
2022-11-22T22:37:56.500Z,6.10
2022-11-22T22:40:23.035Z,6.10
2022-11-22T22:42:49.626Z,6.10
2022-11-22T22:45:16.170Z,6.10
2022-11-22T22:47:42.807Z,6.10
2022-11-22T22:50:09.363Z,6.20
2022-11-22T22:52:35.836Z,6.20
2022-11-22T22:55:02.441Z,6.20
2022-11-22T22:57:28.926Z,6.20
2022-11-22T22:59:55.403Z,6.30
2022-11-22T23:02:21.938Z,6.20
2022-11-22T23:04:48.441Z,6.20
2022-11-22T23:07:15.117Z,6.30
2022-11-22T23:09:41.729Z,6.30
2022-11-22T23:12:11.453Z,6.30
2022-11-22T23:14:39.570Z,6.30
2022-11-22T23:17:06.264Z,6.30
2022-11-22T23:19:32.922Z,6.30
2022-11-22T23:21:59.591Z,6.30
2022-11-22T23:24:26.328Z,6.20
2022-11-22T23:26:52.907Z,6.30
2022-11-22T23:29:19.387Z,6.30
2022-11-22T23:31:45.890Z,6.20
2022-11-22T23:34:12.517Z,6.30
2022-11-22T23:39:22.816Z,6.20
2022-11-22T23:41:49.339Z,6.30
2022-11-22T23:44:15.805Z,6.20
2022-11-22T23:46:42.343Z,6.20
2022-11-22T23:49:08.836Z,6.30
2022-11-22T23:51:35.328Z,6.30
2022-11-22T23:54:01.841Z,6.30
2022-11-22T23:56:28.396Z,6.30
2022-11-22T23:58:54.955Z,6.30
